sensor_id;sensor_type;location;lat;lon;timestamp;pressure;altitude;pressure_sealevel;temperature;humidity
68807;BME280;55800;54.272;18.558;2022-08-19T00:00:46;100600.88;;;21.59;58.17
68807;BME280;55800;54.272;18.558;2022-08-19T00:03:16;100598.28;;;21.58;58.43
68807;BME280;55800;54.272;18.558;2022-08-19T00:05:46;100609.31;;;21.56;58.40
68807;BME280;55800;54.272;18.558;2022-08-19T00:08:15;100603.16;;;21.54;58.11
68807;BME280;55800;54.272;18.558;2022-08-19T00:10:44;100597.97;;;21.51;58.37
68807;BME280;55800;54.272;18.558;2022-08-19T00:13:17;100603.66;;;21.48;58.32
68807;BME280;55800;54.272;18.558;2022-08-19T00:15:46;100614.84;;;21.45;58.41
68807;BME280;55800;54.272;18.558;2022-08-19T00:18:15;100614.09;;;21.43;58.40
68807;BME280;55800;54.272;18.558;2022-08-19T00:20:45;100620.66;;;21.41;58.52
68807;BME280;55800;54.272;18.558;2022-08-19T00:23:14;100617.22;;;21.39;58.88
68807;BME280;55800;54.272;18.558;2022-08-19T00:25:43;100617.34;;;21.37;58.93
68807;BME280;55800;54.272;18.558;2022-08-19T00:28:17;100623.34;;;21.31;58.58
68807;BME280;55800;54.272;18.558;2022-08-19T00:30:46;100620.88;;;21.28;58.79
68807;BME280;55800;54.272;18.558;2022-08-19T00:33:16;100627.56;;;21.24;58.71
68807;BME280;55800;54.272;18.558;2022-08-19T00:35:45;100627.81;;;21.21;58.51
68807;BME280;55800;54.272;18.558;2022-08-19T00:38:22;100622.75;;;21.17;58.58
68807;BME280;55800;54.272;18.558;2022-08-19T00:41:05;100632.06;;;21.14;58.44
68807;BME280;55800;54.272;18.558;2022-08-19T00:43:35;100631.44;;;21.11;58.29
68807;BME280;55800;54.272;18.558;2022-08-19T00:46:05;100630.88;;;21.07;58.45
68807;BME280;55800;54.272;18.558;2022-08-19T00:48:35;100622.94;;;21.04;58.39
68807;BME280;55800;54.272;18.558;2022-08-19T00:51:05;100625.03;;;21.00;58.38
68807;BME280;55800;54.272;18.558;2022-08-19T00:53:35;100626.16;;;20.98;58.55
68807;BME280;55800;54.272;18.558;2022-08-19T00:56:04;100627.28;;;20.95;58.39
68807;BME280;55800;54.272;18.558;2022-08-19T00:58:36;100628.44;;;20.93;58.33
68807;BME280;55800;54.272;18.558;2022-08-19T01:01:05;100635.81;;;20.91;58.76
68807;BME280;55800;54.272;18.558;2022-08-19T01:03:35;100629.53;;;20.90;59.06
68807;BME280;55800;54.272;18.558;2022-08-19T01:06:25;100622.50;;;20.88;58.76
68807;BME280;55800;54.272;18.558;2022-08-19T01:08:54;100622.75;;;20.85;58.99
68807;BME280;55800;54.272;18.558;2022-08-19T01:11:23;100619.31;;;20.83;59.01
68807;BME280;55800;54.272;18.558;2022-08-19T01:13:55;100619.44;;;20.81;59.19
68807;BME280;55800;54.272;18.558;2022-08-19T01:16:26;100618.84;;;20.78;59.05
68807;BME280;55800;54.272;18.558;2022-08-19T01:18:56;100614.53;;;20.75;59.15
68807;BME280;55800;54.272;18.558;2022-08-19T01:21:30;100614.66;;;20.74;59.13
68807;BME280;55800;54.272;18.558;2022-08-19T01:24:02;100615.88;;;20.70;59.18
68807;BME280;55800;54.272;18.558;2022-08-19T01:26:31;100617.03;;;20.67;59.49
68807;BME280;55800;54.272;18.558;2022-08-19T01:29:09;100612.56;;;20.66;59.70
68807;BME280;55800;54.272;18.558;2022-08-19T01:31:38;100609.25;;;20.63;59.44
68807;BME280;55800;54.272;18.558;2022-08-19T01:34:08;100606.69;;;20.61;59.25
68807;BME280;55800;54.272;18.558;2022-08-19T01:36:44;100619.63;;;20.58;59.71
68807;BME280;55800;54.272;18.558;2022-08-19T01:39:19;100621.47;;;20.57;59.79
68807;BME280;55800;54.272;18.558;2022-08-19T01:41:50;100617.19;;;20.55;60.14
68807;BME280;55800;54.272;18.558;2022-08-19T01:44:22;100622.88;;;20.52;59.95
68807;BME280;55800;54.272;18.558;2022-08-19T01:46:52;100613.97;;;20.50;60.18
68807;BME280;55800;54.272;18.558;2022-08-19T01:49:23;100612.50;;;20.46;59.65
68807;BME280;55800;54.272;18.558;2022-08-19T01:51:53;100613.63;;;20.43;59.81
68807;BME280;55800;54.272;18.558;2022-08-19T01:54:25;100618.47;;;20.40;59.79
68807;BME280;55800;54.272;18.558;2022-08-19T01:56:59;100608.69;;;20.37;59.96
68807;BME280;55800;54.272;18.558;2022-08-19T01:59:30;100608.09;;;20.34;59.56
68807;BME280;55800;54.272;18.558;2022-08-19T02:02:01;100601.94;;;20.32;59.59
68807;BME280;55800;54.272;18.558;2022-08-19T02:04:30;100603.88;;;20.30;59.56
68807;BME280;55800;54.272;18.558;2022-08-19T02:06:59;100611.28;;;20.28;59.54
68807;BME280;55800;54.272;18.558;2022-08-19T02:09:31;100612.44;;;20.25;59.73
68807;BME280;55800;54.272;18.558;2022-08-19T02:12:00;100606.13;;;20.25;59.77
68807;BME280;55800;54.272;18.558;2022-08-19T02:14:30;100600.84;;;20.23;59.55
68807;BME280;55800;54.272;18.558;2022-08-19T02:16:59;100601.94;;;20.20;59.53
68807;BME280;55800;54.272;18.558;2022-08-19T02:19:29;100600.19;;;20.19;59.83
68807;BME280;55800;54.272;18.558;2022-08-19T02:21:59;100602.16;;;20.17;59.82
68807;BME280;55800;54.272;18.558;2022-08-19T02:24:30;100598.69;;;20.15;59.79
68807;BME280;55800;54.272;18.558;2022-08-19T02:27:00;100605.88;;;20.16;59.94
68807;BME280;55800;54.272;18.558;2022-08-19T02:29:29;100601.41;;;20.15;59.84
68807;BME280;55800;54.272;18.558;2022-08-19T02:31:58;100599.56;;;20.16;60.34
68807;BME280;55800;54.272;18.558;2022-08-19T02:34:27;100600.53;;;20.15;59.89
68807;BME280;55800;54.272;18.558;2022-08-19T02:36:57;100600.53;;;20.15;60.06
68807;BME280;55800;54.272;18.558;2022-08-19T02:39:32;100593.28;;;20.15;60.28
68807;BME280;55800;54.272;18.558;2022-08-19T02:42:00;100592.31;;;20.16;60.54
68807;BME280;55800;54.272;18.558;2022-08-19T02:44:29;100594.16;;;20.16;60.21
68807;BME280;55800;54.272;18.558;2022-08-19T02:46:59;100593.28;;;20.15;60.36
68807;BME280;55800;54.272;18.558;2022-08-19T02:49:28;100595.00;;;20.16;60.06
68807;BME280;55800;54.272;18.558;2022-08-19T02:52:02;100601.28;;;20.17;60.12
68807;BME280;55800;54.272;18.558;2022-08-19T02:54:33;100599.44;;;20.17;60.33
68807;BME280;55800;54.272;18.558;2022-08-19T02:57:02;100601.28;;;20.17;60.25
68807;BME280;55800;54.272;18.558;2022-08-19T02:59:32;100605.75;;;20.18;60.27
68807;BME280;55800;54.272;18.558;2022-08-19T03:02:01;100603.03;;;20.18;60.26
68807;BME280;55800;54.272;18.558;2022-08-19T03:04:30;100606.59;;;20.18;60.18
68807;BME280;55800;54.272;18.558;2022-08-19T03:07:00;100603.91;;;20.18;60.34
68807;BME280;55800;54.272;18.558;2022-08-19T03:09:39;100600.19;;;20.19;60.41
68807;BME280;55800;54.272;18.558;2022-08-19T03:12:10;100594.75;;;20.19;60.30
68807;BME280;55800;54.272;18.558;2022-08-19T03:14:40;100593.03;;;20.18;60.20
68807;BME280;55800;54.272;18.558;2022-08-19T03:17:10;100597.59;;;20.18;60.08
68807;BME280;55800;54.272;18.558;2022-08-19T03:19:40;100598.47;;;20.18;60.09
68807;BME280;55800;54.272;18.558;2022-08-19T03:22:11;100595.84;;;20.17;60.31
68807;BME280;55800;54.272;18.558;2022-08-19T03:24:41;100598.69;;;20.15;60.22
68807;BME280;55800;54.272;18.558;2022-08-19T03:27:11;100607.84;;;20.14;60.38
68807;BME280;55800;54.272;18.558;2022-08-19T03:29:42;100605.38;;;20.11;60.21
68807;BME280;55800;54.272;18.558;2022-08-19T03:32:11;100610.06;;;20.09;60.19
68807;BME280;55800;54.272;18.558;2022-08-19T03:35:00;100606.63;;;20.07;60.33
68807;BME280;55800;54.272;18.558;2022-08-19T03:37:30;100599.72;;;20.03;60.08
68807;BME280;55800;54.272;18.558;2022-08-19T03:40:01;100596.25;;;20.01;60.15
68807;BME280;55800;54.272;18.558;2022-08-19T03:42:32;100592.81;;;19.99;60.26
68807;BME280;55800;54.272;18.558;2022-08-19T03:45:21;100595.63;;;19.98;60.17
68807;BME280;55800;54.272;18.558;2022-08-19T03:47:51;100597.50;;;19.97;60.22
68807;BME280;55800;54.272;18.558;2022-08-19T03:50:20;100593.03;;;19.96;60.19
68807;BME280;55800;54.272;18.558;2022-08-19T03:52:50;100591.34;;;19.95;59.96
68807;BME280;55800;54.272;18.558;2022-08-19T03:55:22;100601.31;;;19.95;60.17
68807;BME280;55800;54.272;18.558;2022-08-19T03:57:51;100591.34;;;19.95;60.19
68807;BME280;55800;54.272;18.558;2022-08-19T04:00:26;100593.03;;;19.96;60.33
68807;BME280;55800;54.272;18.558;2022-08-19T04:02:55;100585.03;;;19.95;60.45
68807;BME280;55800;54.272;18.558;2022-08-19T04:05:28;100598.47;;;19.96;60.79
68807;BME280;55800;54.272;18.558;2022-08-19T04:07:57;100596.63;;;19.97;61.26
68807;BME280;55800;54.272;18.558;2022-08-19T04:10:29;100609.31;;;19.96;60.96
68807;BME280;55800;54.272;18.558;2022-08-19T04:12:58;100610.19;;;19.97;60.94
68807;BME280;55800;54.272;18.558;2022-08-19T04:15:28;100606.63;;;19.96;61.06
68807;BME280;55800;54.272;18.558;2022-08-19T04:18:01;100622.75;;;19.98;61.17
68807;BME280;55800;54.272;18.558;2022-08-19T04:20:30;100616.50;;;19.97;61.48
68807;BME280;55800;54.272;18.558;2022-08-19T04:23:00;100610.34;;;19.95;61.34
68807;BME280;55800;54.272;18.558;2022-08-19T04:25:36;100621.19;;;19.95;61.29
68807;BME280;55800;54.272;18.558;2022-08-19T04:28:06;100618.47;;;19.95;61.45
68807;BME280;55800;54.272;18.558;2022-08-19T04:30:39;100615.75;;;19.95;61.42
68807;BME280;55800;54.272;18.558;2022-08-19T04:33:09;100620.19;;;19.96;61.44
68807;BME280;55800;54.272;18.558;2022-08-19T04:35:40;100615.63;;;19.97;61.28
68807;BME280;55800;54.272;18.558;2022-08-19T04:38:10;100614.63;;;19.98;61.32
68807;BME280;55800;54.272;18.558;2022-08-19T04:40:43;100603.66;;;19.99;61.47
68807;BME280;55800;54.272;18.558;2022-08-19T04:43:30;100603.41;;;20.02;61.89
68807;BME280;55800;54.272;18.558;2022-08-19T04:46:05;100597.72;;;20.05;61.80
68807;BME280;55800;54.272;18.558;2022-08-19T04:48:35;100613.75;;;20.08;61.76
68807;BME280;55800;54.272;18.558;2022-08-19T04:51:16;100609.94;;;20.11;61.73
68807;BME280;55800;54.272;18.558;2022-08-19T04:53:45;100619.69;;;20.13;61.73
68807;BME280;55800;54.272;18.558;2022-08-19T04:56:17;100625.72;;;20.17;62.11
68807;BME280;55800;54.272;18.558;2022-08-19T04:58:50;100618.44;;;20.17;61.83
68807;BME280;55800;54.272;18.558;2022-08-19T05:01:21;100627.22;;;20.21;61.90
68807;BME280;55800;54.272;18.558;2022-08-19T05:03:51;100625.13;;;20.25;61.81
68807;BME280;55800;54.272;18.558;2022-08-19T05:06:22;100617.72;;;20.27;62.01
68807;BME280;55800;54.272;18.558;2022-08-19T05:08:52;100615.63;;;20.30;62.01
68807;BME280;55800;54.272;18.558;2022-08-19T05:11:24;100623.38;;;20.35;62.20
68807;BME280;55800;54.272;18.558;2022-08-19T05:13:54;100626.72;;;20.38;62.15
68807;BME280;55800;54.272;18.558;2022-08-19T05:16:24;100624.63;;;20.42;62.26
68807;BME280;55800;54.272;18.558;2022-08-19T05:18:55;100619.78;;;20.45;62.34
68807;BME280;55800;54.272;18.558;2022-08-19T05:21:42;100616.69;;;20.50;62.33
68807;BME280;55800;54.272;18.558;2022-08-19T05:24:29;100616.19;;;20.56;62.15
68807;BME280;55800;54.272;18.558;2022-08-19T05:27:03;100623.81;;;20.62;62.19
68807;BME280;55800;54.272;18.558;2022-08-19T05:29:34;100617.88;;;20.68;62.18
68807;BME280;55800;54.272;18.558;2022-08-19T05:32:04;100613.66;;;20.75;62.31
68807;BME280;55800;54.272;18.558;2022-08-19T05:34:37;100627.47;;;20.83;62.04
68807;BME280;55800;54.272;18.558;2022-08-19T05:37:07;100628.69;;;20.90;62.25
68807;BME280;55800;54.272;18.558;2022-08-19T05:39:38;100628.88;;;20.98;62.37
68807;BME280;55800;54.272;18.558;2022-08-19T05:42:11;100630.88;;;21.07;62.07
68807;BME280;55800;54.272;18.558;2022-08-19T05:44:42;100628.34;;;21.15;62.43
68807;BME280;55800;54.272;18.558;2022-08-19T05:47:13;100631.25;;;21.23;62.51
68807;BME280;55800;54.272;18.558;2022-08-19T05:49:43;100645.09;;;21.31;62.40
68807;BME280;55800;54.272;18.558;2022-08-19T05:52:14;100639.97;;;21.38;62.41
68807;BME280;55800;54.272;18.558;2022-08-19T05:54:46;100651.91;;;21.46;62.47
68807;BME280;55800;54.272;18.558;2022-08-19T05:57:20;100650.38;;;21.53;62.19
68807;BME280;55800;54.272;18.558;2022-08-19T05:59:49;100655.28;;;21.59;62.28
68807;BME280;55800;54.272;18.558;2022-08-19T06:02:25;100655.63;;;21.66;62.68
68807;BME280;55800;54.272;18.558;2022-08-19T06:04:55;100663.97;;;21.74;62.46
68807;BME280;55800;54.272;18.558;2022-08-19T06:07:24;100655.16;;;21.82;62.45
68807;BME280;55800;54.272;18.558;2022-08-19T06:09:54;100655.38;;;21.90;62.52
68807;BME280;55800;54.272;18.558;2022-08-19T06:12:29;100653.69;;;21.98;62.56
68807;BME280;55800;54.272;18.558;2022-08-19T06:15:04;100649.28;;;22.07;62.61
68807;BME280;55800;54.272;18.558;2022-08-19T06:17:34;100649.47;;;22.15;62.64
68807;BME280;55800;54.272;18.558;2022-08-19T06:20:04;100653.22;;;22.23;62.70
68807;BME280;55800;54.272;18.558;2022-08-19T06:22:38;100645.38;;;22.30;62.53
68807;BME280;55800;54.272;18.558;2022-08-19T06:25:08;100639.38;;;22.36;62.50
68807;BME280;55800;54.272;18.558;2022-08-19T06:27:41;100644.00;;;22.45;62.45
68807;BME280;55800;54.272;18.558;2022-08-19T06:30:31;100650.63;;;22.52;62.45
68807;BME280;55800;54.272;18.558;2022-08-19T06:33:00;100645.47;;;22.59;62.55
68807;BME280;55800;54.272;18.558;2022-08-19T06:35:29;100651.94;;;22.67;62.56
68807;BME280;55800;54.272;18.558;2022-08-19T06:37:59;100652.13;;;22.75;62.56
68807;BME280;55800;54.272;18.558;2022-08-19T06:40:28;100655.88;;;22.84;62.74
68807;BME280;55800;54.272;18.558;2022-08-19T06:42:58;100645.28;;;22.90;62.66
68807;BME280;55800;54.272;18.558;2022-08-19T06:45:33;100649.84;;;22.99;62.49
68807;BME280;55800;54.272;18.558;2022-08-19T06:48:06;100660.91;;;23.07;62.67
68807;BME280;55800;54.272;18.558;2022-08-19T06:50:38;100651.16;;;23.14;62.68
68807;BME280;55800;54.272;18.558;2022-08-19T06:53:07;100647.56;;;23.23;62.64
68807;BME280;55800;54.272;18.558;2022-08-19T06:55:37;100644.00;;;23.33;62.60
68807;BME280;55800;54.272;18.558;2022-08-19T06:58:09;100637.81;;;23.40;62.67
68807;BME280;55800;54.272;18.558;2022-08-19T07:00:39;100638.81;;;23.49;62.69
68807;BME280;55800;54.272;18.558;2022-08-19T07:03:08;100646.13;;;23.58;62.59
68807;BME280;55800;54.272;18.558;2022-08-19T07:05:41;100651.44;;;23.69;62.69
68807;BME280;55800;54.272;18.558;2022-08-19T07:08:13;100656.69;;;23.80;62.70
68807;BME280;55800;54.272;18.558;2022-08-19T07:10:45;100650.19;;;23.90;62.84
68807;BME280;55800;54.272;18.558;2022-08-19T07:13:17;100650.19;;;24.00;62.96
68807;BME280;55800;54.272;18.558;2022-08-19T07:15:47;100647.31;;;24.11;62.95
68807;BME280;55800;54.272;18.558;2022-08-19T07:18:19;100648.13;;;24.21;62.93
68807;BME280;55800;54.272;18.558;2022-08-19T07:20:49;100638.00;;;24.31;62.99
68807;BME280;55800;54.272;18.558;2022-08-19T07:23:19;100650.59;;;24.42;63.01
68807;BME280;55800;54.272;18.558;2022-08-19T07:25:50;100647.69;;;24.53;62.84
68807;BME280;55800;54.272;18.558;2022-08-19T07:28:21;100637.38;;;24.64;62.96
68807;BME280;55800;54.272;18.558;2022-08-19T07:30:54;100639.06;;;24.75;63.08
68807;BME280;55800;54.272;18.558;2022-08-19T07:33:25;100640.72;;;24.86;62.79
68807;BME280;55800;54.272;18.558;2022-08-19T07:35:54;100640.38;;;24.98;62.86
68807;BME280;55800;54.272;18.558;2022-08-19T07:38:24;100640.28;;;25.08;62.87
68807;BME280;55800;54.272;18.558;2022-08-19T07:40:54;100642.78;;;25.19;62.80
68807;BME280;55800;54.272;18.558;2022-08-19T07:43:24;100639.81;;;25.30;62.98
68807;BME280;55800;54.272;18.558;2022-08-19T07:46:02;100641.44;;;25.40;62.94
68807;BME280;55800;54.272;18.558;2022-08-19T07:48:31;100646.84;;;25.50;62.80
68807;BME280;55800;54.272;18.558;2022-08-19T07:51:04;100637.34;;;25.62;62.86
68807;BME280;55800;54.272;18.558;2022-08-19T07:53:37;100629.03;;;25.72;62.83
68807;BME280;55800;54.272;18.558;2022-08-19T07:56:06;100634.41;;;25.81;62.94
68807;BME280;55800;54.272;18.558;2022-08-19T07:58:40;100631.38;;;25.92;62.77
68807;BME280;55800;54.272;18.558;2022-08-19T08:01:12;100632.13;;;26.02;62.75
68807;BME280;55800;54.272;18.558;2022-08-19T08:03:42;100627.44;;;26.12;62.73
68807;BME280;55800;54.272;18.558;2022-08-19T08:06:29;100618.91;;;26.23;62.42
68807;BME280;55800;54.272;18.558;2022-08-19T08:09:18;100623.09;;;26.36;62.47
68807;BME280;55800;54.272;18.558;2022-08-19T08:11:53;100619.19;;;26.46;62.74
68807;BME280;55800;54.272;18.558;2022-08-19T08:14:35;100621.47;;;26.59;62.67
68807;BME280;55800;54.272;18.558;2022-08-19T08:17:11;100619.44;;;26.69;62.37
68807;BME280;55800;54.272;18.558;2022-08-19T08:19:41;100620.03;;;26.80;62.39
68807;BME280;55800;54.272;18.558;2022-08-19T08:22:13;100618.84;;;26.91;62.35
68807;BME280;55800;54.272;18.558;2022-08-19T08:25:05;100614.91;;;27.01;62.49
68807;BME280;55800;54.272;18.558;2022-08-19T08:27:38;100605.50;;;27.12;62.23
68807;BME280;55800;54.272;18.558;2022-08-19T08:30:12;100609.59;;;27.24;62.28
68807;BME280;55800;54.272;18.558;2022-08-19T08:32:41;100609.41;;;27.34;62.24
68807;BME280;55800;54.272;18.558;2022-08-19T08:35:14;100601.06;;;27.43;62.14
68807;BME280;55800;54.272;18.558;2022-08-19T08:37:47;100607.22;;;27.53;62.20
68807;BME280;55800;54.272;18.558;2022-08-19T08:40:23;100608.06;;;27.62;61.71
68807;BME280;55800;54.272;18.558;2022-08-19T08:42:59;100604.09;;;27.72;61.74
68807;BME280;55800;54.272;18.558;2022-08-19T08:45:43;100598.56;;;27.80;61.79
68807;BME280;55800;54.272;18.558;2022-08-19T08:48:34;100604.91;;;27.89;61.66
68807;BME280;55800;54.272;18.558;2022-08-19T08:51:09;100598.59;;;27.97;61.67
68807;BME280;55800;54.272;18.558;2022-08-19T08:53:51;100593.06;;;28.05;61.03
68807;BME280;55800;54.272;18.558;2022-08-19T08:56:23;100590.47;;;28.11;61.07
68807;BME280;55800;54.272;18.558;2022-08-19T08:58:58;100594.03;;;28.20;60.73
68807;BME280;55800;54.272;18.558;2022-08-19T09:01:30;100594.00;;;28.28;60.76
68807;BME280;55800;54.272;18.558;2022-08-19T09:03:59;100586.09;;;28.33;60.60
68807;BME280;55800;54.272;18.558;2022-08-19T09:06:37;100587.06;;;28.40;60.52
68807;BME280;55800;54.272;18.558;2022-08-19T09:09:14;100588.06;;;28.47;59.93
68807;BME280;55800;54.272;18.558;2022-08-19T09:11:56;100597.47;;;28.52;59.98
68807;BME280;55800;54.272;18.558;2022-08-19T09:14:37;100584.94;;;28.58;59.51
68807;BME280;55800;54.272;18.558;2022-08-19T09:17:23;100586.09;;;28.64;59.80
68807;BME280;55800;54.272;18.558;2022-08-19T09:19:58;100587.09;;;28.71;59.61
68807;BME280;55800;54.272;18.558;2022-08-19T09:22:32;100592.06;;;28.75;59.25
68807;BME280;55800;54.272;18.558;2022-08-19T09:25:02;100586.69;;;28.82;59.24
68807;BME280;55800;54.272;18.558;2022-08-19T09:27:37;100580.47;;;28.88;58.80
68807;BME280;55800;54.272;18.558;2022-08-19T09:30:22;100583.34;;;28.94;58.70
68807;BME280;55800;54.272;18.558;2022-08-19T09:32:54;100581.53;;;29.01;58.86
68807;BME280;55800;54.272;18.558;2022-08-19T09:35:27;100577.22;;;29.07;58.60
68807;BME280;55800;54.272;18.558;2022-08-19T09:37:58;100580.09;;;29.13;58.65
68807;BME280;55800;54.272;18.558;2022-08-19T09:40:30;100573.88;;;29.19;58.33
68807;BME280;55800;54.272;18.558;2022-08-19T09:43:05;100573.13;;;29.25;58.03
68807;BME280;55800;54.272;18.558;2022-08-19T09:45:40;100577.91;;;29.31;57.83
68807;BME280;55800;54.272;18.558;2022-08-19T09:48:11;100577.16;;;29.38;57.62
68807;BME280;55800;54.272;18.558;2022-08-19T09:50:50;100570.91;;;29.44;57.62
68807;BME280;55800;54.272;18.558;2022-08-19T09:53:20;100560.84;;;29.51;57.46
68807;BME280;55800;54.272;18.558;2022-08-19T09:55:52;100572.84;;;29.58;57.39
68807;BME280;55800;54.272;18.558;2022-08-19T09:58:23;100566.56;;;29.64;57.08
68807;BME280;55800;54.272;18.558;2022-08-19T10:00:56;100564.78;;;29.71;57.25
68807;BME280;55800;54.272;18.558;2022-08-19T10:03:29;100564.91;;;29.77;57.17
68807;BME280;55800;54.272;18.558;2022-08-19T10:06:00;100558.44;;;29.85;56.94
68807;BME280;55800;54.272;18.558;2022-08-19T10:08:34;100556.66;;;29.92;56.85
68807;BME280;55800;54.272;18.558;2022-08-19T10:11:04;100565.84;;;29.99;56.91
68807;BME280;55800;54.272;18.558;2022-08-19T10:13:54;100560.25;;;30.07;56.67
68807;BME280;55800;54.272;18.558;2022-08-19T10:16:24;100554.63;;;30.15;56.55
68807;BME280;55800;54.272;18.558;2022-08-19T10:18:59;100544.53;;;30.22;56.38
68807;BME280;55800;54.272;18.558;2022-08-19T10:21:33;100538.56;;;30.33;56.32
68807;BME280;55800;54.272;18.558;2022-08-19T10:24:04;100539.97;;;30.44;56.38
68807;BME280;55800;54.272;18.558;2022-08-19T10:26:40;100546.88;;;30.54;56.50
68807;BME280;55800;54.272;18.558;2022-08-19T10:29:22;100551.03;;;30.65;56.31
68807;BME280;55800;54.272;18.558;2022-08-19T10:32:00;100547.56;;;30.77;56.52
68807;BME280;55800;54.272;18.558;2022-08-19T10:34:31;100546.59;;;30.85;55.94
68807;BME280;55800;54.272;18.558;2022-08-19T10:37:01;100550.13;;;30.94;55.61
68807;BME280;55800;54.272;18.558;2022-08-19T10:39:37;100539.97;;;31.01;54.77
68807;BME280;55800;54.272;18.558;2022-08-19T10:42:10;100536.44;;;31.07;55.25
68807;BME280;55800;54.272;18.558;2022-08-19T10:44:41;100540.09;;;31.14;55.30
68807;BME280;55800;54.272;18.558;2022-08-19T10:47:11;100528.25;;;31.20;54.94
68807;BME280;55800;54.272;18.558;2022-08-19T10:49:54;100530.25;;;31.26;54.04
68807;BME280;55800;54.272;18.558;2022-08-19T10:52:42;100525.81;;;31.31;54.70
68807;BME280;55800;54.272;18.558;2022-08-19T10:55:19;100517.78;;;31.36;54.22
68807;BME280;55800;54.272;18.558;2022-08-19T10:58:11;100524.44;;;31.42;54.11
68807;BME280;55800;54.272;18.558;2022-08-19T11:00:41;100530.03;;;31.48;53.49
68807;BME280;55800;54.272;18.558;2022-08-19T11:03:12;100521.31;;;31.51;53.61
68807;BME280;55800;54.272;18.558;2022-08-19T11:05:43;100514.53;;;31.54;53.90
68807;BME280;55800;54.272;18.558;2022-08-19T11:08:12;100506.88;;;31.56;53.75
68807;BME280;55800;54.272;18.558;2022-08-19T11:10:51;100504.78;;;31.58;53.51
68807;BME280;55800;54.272;18.558;2022-08-19T11:13:28;100497.13;;;31.60;53.65
68807;BME280;55800;54.272;18.558;2022-08-19T11:15:59;100500.56;;;31.62;53.51
68807;BME280;55800;54.272;18.558;2022-08-19T11:18:35;100474.63;;;31.63;53.10
68807;BME280;55800;54.272;18.558;2022-08-19T11:21:15;100482.69;;;31.65;53.03
68807;BME280;55800;54.272;18.558;2022-08-19T11:23:47;100486.97;;;31.67;52.68
68807;BME280;55800;54.272;18.558;2022-08-19T11:26:18;100490.38;;;31.69;52.74
68807;BME280;55800;54.272;18.558;2022-08-19T11:28:49;100481.69;;;31.72;52.44
68807;BME280;55800;54.272;18.558;2022-08-19T11:31:23;100487.88;;;31.74;52.69
68807;BME280;55800;54.272;18.558;2022-08-19T11:33:57;100482.78;;;31.78;52.51
68807;BME280;55800;54.272;18.558;2022-08-19T11:36:30;100478.56;;;31.82;52.41
68807;BME280;55800;54.272;18.558;2022-08-19T11:39:00;100477.94;;;31.86;52.18
68807;BME280;55800;54.272;18.558;2022-08-19T11:41:29;100473.53;;;31.92;51.99
68807;BME280;55800;54.272;18.558;2022-08-19T11:43:58;100475.28;;;31.99;51.99
68807;BME280;55800;54.272;18.558;2022-08-19T11:46:28;100476.16;;;32.06;51.89
68807;BME280;55800;54.272;18.558;2022-08-19T11:48:59;100465.13;;;32.13;51.08
68807;BME280;55800;54.272;18.558;2022-08-19T11:51:30;100466.84;;;32.20;51.75
68807;BME280;55800;54.272;18.558;2022-08-19T11:54:00;100461.13;;;32.28;51.84
68807;BME280;55800;54.272;18.558;2022-08-19T11:56:30;100460.94;;;32.37;51.87
68807;BME280;55800;54.272;18.558;2022-08-19T11:59:00;100462.66;;;32.44;51.49
68807;BME280;55800;54.272;18.558;2022-08-19T12:01:30;100449.94;;;32.50;51.56
68807;BME280;55800;54.272;18.558;2022-08-19T12:04:00;100450.81;;;32.57;51.43
68807;BME280;55800;54.272;18.558;2022-08-19T12:06:32;100464.44;;;32.65;51.60
68807;BME280;55800;54.272;18.558;2022-08-19T12:09:05;100453.59;;;32.70;51.54
68807;BME280;55800;54.272;18.558;2022-08-19T12:11:36;100447.84;;;32.78;51.44
68807;BME280;55800;54.272;18.558;2022-08-19T12:14:08;100443.38;;;32.83;50.83
68807;BME280;55800;54.272;18.558;2022-08-19T12:16:43;100437.41;;;32.86;50.68
68807;BME280;55800;54.272;18.558;2022-08-19T12:19:19;100445.72;;;32.93;50.48
68807;BME280;55800;54.272;18.558;2022-08-19T12:21:51;100441.47;;;32.97;49.85
68807;BME280;55800;54.272;18.558;2022-08-19T12:24:23;100435.97;;;33.03;50.42
68807;BME280;55800;54.272;18.558;2022-08-19T12:26:52;100432.53;;;33.08;51.02
68807;BME280;55800;54.272;18.558;2022-08-19T12:29:28;100435.09;;;33.16;50.41
68807;BME280;55800;54.272;18.558;2022-08-19T12:31:58;100426.13;;;33.21;50.21
68807;BME280;55800;54.272;18.558;2022-08-19T12:34:31;100430.19;;;33.25;49.84
68807;BME280;55800;54.272;18.558;2022-08-19T12:37:05;100432.31;;;33.29;49.99
68807;BME280;55800;54.272;18.558;2022-08-19T12:39:36;100426.31;;;33.32;49.77
68807;BME280;55800;54.272;18.558;2022-08-19T12:42:06;100419.28;;;33.36;49.97
68807;BME280;55800;54.272;18.558;2022-08-19T12:44:37;100409.69;;;33.39;49.56
68807;BME280;55800;54.272;18.558;2022-08-19T12:47:10;100408.19;;;33.36;49.29
68807;BME280;55800;54.272;18.558;2022-08-19T12:49:42;100417.13;;;33.38;49.16
68807;BME280;55800;54.272;18.558;2022-08-19T12:52:25;100411.59;;;33.38;49.58
68807;BME280;55800;54.272;18.558;2022-08-19T12:54:56;100402.44;;;33.38;49.09
68807;BME280;55800;54.272;18.558;2022-08-19T12:57:27;100405.41;;;33.36;48.96
68807;BME280;55800;54.272;18.558;2022-08-19T13:00:03;100396.47;;;33.34;48.69
68807;BME280;55800;54.272;18.558;2022-08-19T13:02:37;100386.25;;;33.35;48.81
68807;BME280;55800;54.272;18.558;2022-08-19T13:05:11;100392.19;;;33.38;49.49
68807;BME280;55800;54.272;18.558;2022-08-19T13:07:42;100387.94;;;33.42;48.48